sensor_id;sensor_type;location;lat;lon;timestamp;P1;durP1;ratioP1;P2;durP2;ratioP2
63555;SDS011;49700;48.072;7.800;2023-05-15T00:00:07;2.07;;;1.80;;
63555;SDS011;49700;48.072;7.800;2023-05-15T00:02:40;2.63;;;2.15;;
63555;SDS011;49700;48.072;7.800;2023-05-15T00:05:06;2.77;;;2.27;;
63555;SDS011;49700;48.072;7.800;2023-05-15T00:07:32;6.40;;;2.40;;
63555;SDS011;49700;48.072;7.800;2023-05-15T00:09:58;2.47;;;2.28;;
63555;SDS011;49700;48.072;7.800;2023-05-15T00:12:23;1.70;;;1.60;;
63555;SDS011;49700;48.072;7.800;2023-05-15T00:14:48;1.93;;;1.40;;
63555;SDS011;49700;48.072;7.800;2023-05-15T00:17:14;2.73;;;1.90;;
63555;SDS011;49700;48.072;7.800;2023-05-15T00:19:39;2.27;;;2.07;;
63555;SDS011;49700;48.072;7.800;2023-05-15T00:22:05;2.23;;;2.03;;
63555;SDS011;49700;48.072;7.800;2023-05-15T00:24:30;2.27;;;2.10;;
63555;SDS011;49700;48.072;7.800;2023-05-15T00:26:56;2.40;;;2.20;;
63555;SDS011;49700;48.072;7.800;2023-05-15T00:29:24;3.10;;;2.63;;
63555;SDS011;49700;48.072;7.800;2023-05-15T00:31:49;2.83;;;2.63;;
63555;SDS011;49700;48.072;7.800;2023-05-15T00:34:15;1.90;;;1.70;;
63555;SDS011;49700;48.072;7.800;2023-05-15T00:36:40;2.17;;;1.97;;
63555;SDS011;49700;48.072;7.800;2023-05-15T00:39:06;2.70;;;2.20;;
63555;SDS011;49700;48.072;7.800;2023-05-15T00:41:31;1.70;;;1.43;;
63555;SDS011;49700;48.072;7.800;2023-05-15T00:43:58;4.57;;;2.42;;
63555;SDS011;49700;48.072;7.800;2023-05-15T00:46:24;6.28;;;2.50;;
63555;SDS011;49700;48.072;7.800;2023-05-15T00:48:52;1.95;;;1.35;;
63555;SDS011;49700;48.072;7.800;2023-05-15T00:51:19;2.30;;;2.00;;
63555;SDS011;49700;48.072;7.800;2023-05-15T00:53:45;2.37;;;2.17;;
63555;SDS011;49700;48.072;7.800;2023-05-15T00:56:11;3.10;;;2.10;;
63555;SDS011;49700;48.072;7.800;2023-05-15T00:58:36;3.00;;;1.93;;
63555;SDS011;49700;48.072;7.800;2023-05-15T01:01:02;2.50;;;1.87;;
63555;SDS011;49700;48.072;7.800;2023-05-15T01:03:28;3.15;;;2.20;;
63555;SDS011;49700;48.072;7.800;2023-05-15T01:05:54;5.18;;;2.20;;
63555;SDS011;49700;48.072;7.800;2023-05-15T01:08:42;1.77;;;1.63;;
63555;SDS011;49700;48.072;7.800;2023-05-15T01:11:10;2.05;;;1.80;;
63555;SDS011;49700;48.072;7.800;2023-05-15T01:13:37;6.00;;;1.83;;
63555;SDS011;49700;48.072;7.800;2023-05-15T01:16:03;2.80;;;2.00;;
63555;SDS011;49700;48.072;7.800;2023-05-15T01:18:30;1.55;;;1.45;;
63555;SDS011;49700;48.072;7.800;2023-05-15T01:29:36;3.42;;;2.60;;
63555;SDS011;49700;48.072;7.800;2023-05-15T01:32:09;3.35;;;2.15;;
63555;SDS011;49700;48.072;7.800;2023-05-15T01:35:04;4.18;;;2.72;;
63555;SDS011;49700;48.072;7.800;2023-05-15T01:37:39;2.90;;;2.42;;
63555;SDS011;49700;48.072;7.800;2023-05-15T01:40:09;4.55;;;2.17;;
63555;SDS011;49700;48.072;7.800;2023-05-15T01:42:41;2.78;;;2.58;;
63555;SDS011;49700;48.072;7.800;2023-05-15T01:45:10;3.45;;;2.65;;
63555;SDS011;49700;48.072;7.800;2023-05-15T01:47:37;2.50;;;2.30;;
63555;SDS011;49700;48.072;7.800;2023-05-15T01:50:06;2.38;;;2.17;;
63555;SDS011;49700;48.072;7.800;2023-05-15T01:52:35;3.38;;;2.38;;
63555;SDS011;49700;48.072;7.800;2023-05-15T01:55:06;3.75;;;2.20;;
63555;SDS011;49700;48.072;7.800;2023-05-15T01:57:32;2.65;;;2.15;;
63555;SDS011;49700;48.072;7.800;2023-05-15T01:59:59;3.00;;;2.50;;
63555;SDS011;49700;48.072;7.800;2023-05-15T02:02:28;2.58;;;2.30;;
63555;SDS011;49700;48.072;7.800;2023-05-15T02:04:55;3.22;;;2.30;;
63555;SDS011;49700;48.072;7.800;2023-05-15T02:07:20;3.10;;;2.60;;
63555;SDS011;49700;48.072;7.800;2023-05-15T02:09:48;3.25;;;2.17;;
63555;SDS011;49700;48.072;7.800;2023-05-15T02:12:15;3.63;;;3.17;;
63555;SDS011;49700;48.072;7.800;2023-05-15T02:14:42;2.83;;;2.40;;
63555;SDS011;49700;48.072;7.800;2023-05-15T02:17:07;2.03;;;1.83;;
63555;SDS011;49700;48.072;7.800;2023-05-15T02:19:33;2.63;;;2.43;;
63555;SDS011;49700;48.072;7.800;2023-05-15T02:22:01;2.50;;;2.30;;
63555;SDS011;49700;48.072;7.800;2023-05-15T02:24:26;2.23;;;2.03;;
63555;SDS011;49700;48.072;7.800;2023-05-15T02:27:01;2.23;;;2.00;;
63555;SDS011;49700;48.072;7.800;2023-05-15T02:29:36;3.45;;;2.60;;
63555;SDS011;49700;48.072;7.800;2023-05-15T02:32:16;2.50;;;2.30;;
63555;SDS011;49700;48.072;7.800;2023-05-15T02:35:02;3.15;;;2.22;;
63555;SDS011;49700;48.072;7.800;2023-05-15T02:37:38;3.60;;;2.25;;
63555;SDS011;49700;48.072;7.800;2023-05-15T02:40:08;3.72;;;2.45;;
63555;SDS011;49700;48.072;7.800;2023-05-15T02:42:37;2.63;;;2.35;;
63555;SDS011;49700;48.072;7.800;2023-05-15T02:45:04;2.92;;;2.72;;
63555;SDS011;49700;48.072;7.800;2023-05-15T02:47:31;3.20;;;2.30;;
63555;SDS011;49700;48.072;7.800;2023-05-15T02:49:58;3.28;;;2.75;;
63555;SDS011;49700;48.072;7.800;2023-05-15T02:52:25;3.50;;;2.55;;
63555;SDS011;49700;48.072;7.800;2023-05-15T02:54:50;2.87;;;2.47;;
63555;SDS011;49700;48.072;7.800;2023-05-15T02:57:16;6.37;;;3.87;;
63555;SDS011;49700;48.072;7.800;2023-05-15T02:59:41;4.80;;;2.43;;
63555;SDS011;49700;48.072;7.800;2023-05-15T03:02:07;2.73;;;2.53;;
63555;SDS011;49700;48.072;7.800;2023-05-15T03:04:32;2.37;;;1.87;;
63555;SDS011;49700;48.072;7.800;2023-05-15T03:06:58;3.20;;;2.30;;
63555;SDS011;49700;48.072;7.800;2023-05-15T03:09:23;3.60;;;3.10;;
63555;SDS011;49700;48.072;7.800;2023-05-15T03:11:49;3.43;;;2.30;;
63555;SDS011;49700;48.072;7.800;2023-05-15T03:14:15;5.13;;;2.93;;
63555;SDS011;49700;48.072;7.800;2023-05-15T03:16:40;2.77;;;2.40;;
63555;SDS011;49700;48.072;7.800;2023-05-15T03:19:06;2.10;;;1.97;;
63555;SDS011;49700;48.072;7.800;2023-05-15T03:21:31;3.43;;;2.67;;
63555;SDS011;49700;48.072;7.800;2023-05-15T03:23:59;4.10;;;2.80;;
63555;SDS011;49700;48.072;7.800;2023-05-15T03:26:24;3.43;;;2.43;;
63555;SDS011;49700;48.072;7.800;2023-05-15T03:28:51;2.93;;;2.70;;
63555;SDS011;49700;48.072;7.800;2023-05-15T03:31:17;14.57;;;2.80;;
63555;SDS011;49700;48.072;7.800;2023-05-15T03:33:42;4.40;;;2.67;;
63555;SDS011;49700;48.072;7.800;2023-05-15T03:36:09;3.17;;;2.53;;
63555;SDS011;49700;48.072;7.800;2023-05-15T03:38:35;3.77;;;2.40;;
63555;SDS011;49700;48.072;7.800;2023-05-15T03:41:00;2.33;;;2.13;;
63555;SDS011;49700;48.072;7.800;2023-05-15T03:43:26;2.97;;;2.23;;
63555;SDS011;49700;48.072;7.800;2023-05-15T03:45:51;2.90;;;2.67;;
63555;SDS011;49700;48.072;7.800;2023-05-15T03:48:16;2.20;;;2.00;;
63555;SDS011;49700;48.072;7.800;2023-05-15T03:50:43;2.10;;;1.90;;
63555;SDS011;49700;48.072;7.800;2023-05-15T03:53:09;2.80;;;2.30;;
63555;SDS011;49700;48.072;7.800;2023-05-15T03:55:34;3.77;;;2.13;;
63555;SDS011;49700;48.072;7.800;2023-05-15T03:58:00;2.60;;;2.40;;
63555;SDS011;49700;48.072;7.800;2023-05-15T04:00:26;2.20;;;1.95;;
63555;SDS011;49700;48.072;7.800;2023-05-15T04:02:51;1.70;;;1.60;;
63555;SDS011;49700;48.072;7.800;2023-05-15T04:05:17;1.97;;;1.83;;
63555;SDS011;49700;48.072;7.800;2023-05-15T04:07:43;2.20;;;1.83;;
63555;SDS011;49700;48.072;7.800;2023-05-15T04:10:09;2.30;;;2.10;;
63555;SDS011;49700;48.072;7.800;2023-05-15T04:12:34;2.40;;;2.20;;
63555;SDS011;49700;48.072;7.800;2023-05-15T04:17:46;2.78;;;2.58;;
63555;SDS011;49700;48.072;7.800;2023-05-15T04:20:13;3.45;;;2.72;;
63555;SDS011;49700;48.072;7.800;2023-05-15T04:22:39;3.17;;;2.42;;
63555;SDS011;49700;48.072;7.800;2023-05-15T04:25:05;3.20;;;1.80;;
63555;SDS011;49700;48.072;7.800;2023-05-15T04:27:32;3.60;;;3.08;;
63555;SDS011;49700;48.072;7.800;2023-05-15T04:29:57;2.90;;;2.60;;
63555;SDS011;49700;48.072;7.800;2023-05-15T04:32:23;2.43;;;2.23;;
63555;SDS011;49700;48.072;7.800;2023-05-15T04:34:48;3.95;;;2.80;;
63555;SDS011;49700;48.072;7.800;2023-05-15T04:37:14;3.60;;;2.53;;
63555;SDS011;49700;48.072;7.800;2023-05-15T04:39:39;2.87;;;2.27;;
63555;SDS011;49700;48.072;7.800;2023-05-15T04:42:05;3.97;;;3.07;;
63555;SDS011;49700;48.072;7.800;2023-05-15T04:44:30;3.13;;;2.83;;
63555;SDS011;49700;48.072;7.800;2023-05-15T04:46:56;3.70;;;3.17;;
63555;SDS011;49700;48.072;7.800;2023-05-15T04:49:21;4.20;;;2.97;;
63555;SDS011;49700;48.072;7.800;2023-05-15T04:51:46;4.80;;;4.00;;
63555;SDS011;49700;48.072;7.800;2023-05-15T04:54:12;4.30;;;3.90;;
63555;SDS011;49700;48.072;7.800;2023-05-15T04:56:37;4.20;;;3.90;;
63555;SDS011;49700;48.072;7.800;2023-05-15T04:59:02;3.70;;;3.10;;
63555;SDS011;49700;48.072;7.800;2023-05-15T05:01:28;4.30;;;3.10;;
63555;SDS011;49700;48.072;7.800;2023-05-15T05:03:53;3.80;;;3.47;;
63555;SDS011;49700;48.072;7.800;2023-05-15T05:06:19;5.30;;;4.63;;
63555;SDS011;49700;48.072;7.800;2023-05-15T05:08:44;3.30;;;3.10;;
63555;SDS011;49700;48.072;7.800;2023-05-15T05:11:09;7.37;;;3.30;;
63555;SDS011;49700;48.072;7.800;2023-05-15T05:13:35;4.60;;;3.27;;
63555;SDS011;49700;48.072;7.800;2023-05-15T05:16:00;3.73;;;3.00;;
63555;SDS011;49700;48.072;7.800;2023-05-15T05:18:26;4.43;;;3.07;;
63555;SDS011;49700;48.072;7.800;2023-05-15T05:20:58;3.80;;;3.50;;
63555;SDS011;49700;48.072;7.800;2023-05-15T05:23:27;3.42;;;2.83;;
63555;SDS011;49700;48.072;7.800;2023-05-15T05:25:52;3.95;;;3.55;;
63555;SDS011;49700;48.072;7.800;2023-05-15T05:28:18;4.13;;;3.10;;
63555;SDS011;49700;48.072;7.800;2023-05-15T05:30:46;3.93;;;3.63;;
63555;SDS011;49700;48.072;7.800;2023-05-15T05:33:12;4.78;;;4.25;;
63555;SDS011;49700;48.072;7.800;2023-05-15T05:35:38;4.60;;;3.80;;
63555;SDS011;49700;48.072;7.800;2023-05-15T05:38:03;3.73;;;2.80;;
63555;SDS011;49700;48.072;7.800;2023-05-15T05:40:29;4.47;;;3.00;;
63555;SDS011;49700;48.072;7.800;2023-05-15T05:42:58;3.17;;;2.87;;
63555;SDS011;49700;48.072;7.800;2023-05-15T05:45:24;3.33;;;3.00;;
63555;SDS011;49700;48.072;7.800;2023-05-15T05:47:49;4.37;;;2.93;;
63555;SDS011;49700;48.072;7.800;2023-05-15T05:50:15;4.50;;;3.33;;
63555;SDS011;49700;48.072;7.800;2023-05-15T05:52:40;5.20;;;3.10;;
63555;SDS011;49700;48.072;7.800;2023-05-15T05:55:06;4.33;;;2.97;;
63555;SDS011;49700;48.072;7.800;2023-05-15T05:57:31;5.40;;;4.27;;
63555;SDS011;49700;48.072;7.800;2023-05-15T05:59:57;3.50;;;3.13;;
63555;SDS011;49700;48.072;7.800;2023-05-15T06:02:23;4.57;;;3.67;;
63555;SDS011;49700;48.072;7.800;2023-05-15T06:04:48;5.00;;;2.70;;
63555;SDS011;49700;48.072;7.800;2023-05-15T06:07:13;4.57;;;3.43;;
63555;SDS011;49700;48.072;7.800;2023-05-15T06:09:39;3.43;;;3.13;;
63555;SDS011;49700;48.072;7.800;2023-05-15T06:12:05;3.93;;;2.93;;
63555;SDS011;49700;48.072;7.800;2023-05-15T06:14:32;6.22;;;3.72;;
63555;SDS011;49700;48.072;7.800;2023-05-15T06:16:58;4.20;;;3.90;;
63555;SDS011;49700;48.072;7.800;2023-05-15T06:19:24;3.38;;;2.95;;
63555;SDS011;49700;48.072;7.800;2023-05-15T06:21:50;3.77;;;3.37;;
63555;SDS011;49700;48.072;7.800;2023-05-15T06:24:15;3.47;;;3.10;;
63555;SDS011;49700;48.072;7.800;2023-05-15T06:26:41;4.33;;;3.40;;
63555;SDS011;49700;48.072;7.800;2023-05-15T06:29:06;4.10;;;3.40;;
63555;SDS011;49700;48.072;7.800;2023-05-15T06:31:32;3.57;;;3.23;;
63555;SDS011;49700;48.072;7.800;2023-05-15T06:33:57;5.73;;;3.50;;
63555;SDS011;49700;48.072;7.800;2023-05-15T06:36:22;3.53;;;3.23;;
63555;SDS011;49700;48.072;7.800;2023-05-15T06:38:48;4.63;;;3.90;;
63555;SDS011;49700;48.072;7.800;2023-05-15T06:41:13;5.50;;;3.67;;
63555;SDS011;49700;48.072;7.800;2023-05-15T06:43:38;7.80;;;3.60;;
63555;SDS011;49700;48.072;7.800;2023-05-15T06:46:04;3.40;;;3.10;;
63555;SDS011;49700;48.072;7.800;2023-05-15T06:48:29;6.90;;;4.70;;
63555;SDS011;49700;48.072;7.800;2023-05-15T06:50:55;5.97;;;4.73;;
63555;SDS011;49700;48.072;7.800;2023-05-15T06:53:20;6.90;;;5.00;;
63555;SDS011;49700;48.072;7.800;2023-05-15T06:55:45;6.20;;;5.23;;
63555;SDS011;49700;48.072;7.800;2023-05-15T06:58:11;7.27;;;5.00;;
63555;SDS011;49700;48.072;7.800;2023-05-15T07:00:36;9.93;;;5.20;;
63555;SDS011;49700;48.072;7.800;2023-05-15T07:03:02;5.37;;;4.57;;
63555;SDS011;49700;48.072;7.800;2023-05-15T07:05:27;6.43;;;5.53;;
63555;SDS011;49700;48.072;7.800;2023-05-15T07:07:53;6.90;;;4.83;;
63555;SDS011;49700;48.072;7.800;2023-05-15T07:10:18;6.30;;;5.70;;
63555;SDS011;49700;48.072;7.800;2023-05-15T07:12:44;8.00;;;5.80;;
63555;SDS011;49700;48.072;7.800;2023-05-15T07:15:10;8.10;;;5.00;;
63555;SDS011;49700;48.072;7.800;2023-05-15T07:17:35;6.50;;;5.20;;
63555;SDS011;49700;48.072;7.800;2023-05-15T07:20:01;7.30;;;4.73;;
63555;SDS011;49700;48.072;7.800;2023-05-15T07:22:26;10.17;;;5.90;;
63555;SDS011;49700;48.072;7.800;2023-05-15T07:24:53;6.07;;;5.18;;
63555;SDS011;49700;48.072;7.800;2023-05-15T07:27:18;5.90;;;5.40;;
63555;SDS011;49700;48.072;7.800;2023-05-15T07:29:43;6.03;;;4.67;;
63555;SDS011;49700;48.072;7.800;2023-05-15T07:32:09;8.40;;;5.47;;
63555;SDS011;49700;48.072;7.800;2023-05-15T07:34:34;5.30;;;4.80;;
63555;SDS011;49700;48.072;7.800;2023-05-15T07:37:00;6.23;;;5.70;;
63555;SDS011;49700;48.072;7.800;2023-05-15T07:39:25;8.93;;;5.07;;
63555;SDS011;49700;48.072;7.800;2023-05-15T07:41:50;5.00;;;4.60;;
63555;SDS011;49700;48.072;7.800;2023-05-15T07:44:16;5.37;;;4.53;;
63555;SDS011;49700;48.072;7.800;2023-05-15T07:46:41;5.20;;;4.70;;
63555;SDS011;49700;48.072;7.800;2023-05-15T07:49:06;5.80;;;5.13;;
63555;SDS011;49700;48.072;7.800;2023-05-15T07:51:32;8.50;;;6.20;;
63555;SDS011;49700;48.072;7.800;2023-05-15T07:53:57;8.53;;;5.57;;
63555;SDS011;49700;48.072;7.800;2023-05-15T07:56:22;6.73;;;5.40;;
63555;SDS011;49700;48.072;7.800;2023-05-15T07:58:48;4.90;;;4.40;;
63555;SDS011;49700;48.072;7.800;2023-05-15T08:01:13;5.97;;;5.43;;
63555;SDS011;49700;48.072;7.800;2023-05-15T08:03:39;6.23;;;4.90;;
63555;SDS011;49700;48.072;7.800;2023-05-15T08:06:04;5.73;;;4.43;;
63555;SDS011;49700;48.072;7.800;2023-05-15T08:08:31;8.27;;;4.90;;
63555;SDS011;49700;48.072;7.800;2023-05-15T08:10:56;4.80;;;4.40;;
63555;SDS011;49700;48.072;7.800;2023-05-15T08:13:22;5.63;;;5.03;;
63555;SDS011;49700;48.072;7.800;2023-05-15T08:15:47;6.60;;;5.17;;
63555;SDS011;49700;48.072;7.800;2023-05-15T08:18:12;5.87;;;5.30;;
63555;SDS011;49700;48.072;7.800;2023-05-15T08:20:38;5.50;;;5.00;;
63555;SDS011;49700;48.072;7.800;2023-05-15T08:23:03;5.93;;;5.43;;
63555;SDS011;49700;48.072;7.800;2023-05-15T08:25:29;6.20;;;5.13;;
63555;SDS011;49700;48.072;7.800;2023-05-15T08:27:54;5.40;;;4.90;;
63555;SDS011;49700;48.072;7.800;2023-05-15T08:30:19;6.50;;;5.90;;
63555;SDS011;49700;48.072;7.800;2023-05-15T08:32:45;6.00;;;5.40;;
63555;SDS011;49700;48.072;7.800;2023-05-15T08:35:11;6.90;;;6.20;;
63555;SDS011;49700;48.072;7.800;2023-05-15T08:37:36;5.40;;;4.70;;
63555;SDS011;49700;48.072;7.800;2023-05-15T08:40:02;11.27;;;5.30;;
63555;SDS011;49700;48.072;7.800;2023-05-15T08:42:34;7.23;;;5.50;;
63555;SDS011;49700;48.072;7.800;2023-05-15T08:45:07;5.80;;;4.93;;
63555;SDS011;49700;48.072;7.800;2023-05-15T08:47:34;7.00;;;5.23;;
63555;SDS011;49700;48.072;7.800;2023-05-15T08:52:33;7.33;;;6.63;;
63555;SDS011;49700;48.072;7.800;2023-05-15T08:55:00;6.87;;;6.23;;
63555;SDS011;49700;48.072;7.800;2023-05-15T08:57:26;6.50;;;5.80;;
63555;SDS011;49700;48.072;7.800;2023-05-15T08:59:52;7.27;;;5.80;;
63555;SDS011;49700;48.072;7.800;2023-05-15T09:02:19;6.73;;;5.67;;
63555;SDS011;49700;48.072;7.800;2023-05-15T09:04:45;6.93;;;6.23;;
63555;SDS011;49700;48.072;7.800;2023-05-15T09:07:11;6.97;;;6.00;;
63555;SDS011;49700;48.072;7.800;2023-05-15T09:09:38;6.10;;;5.50;;
63555;SDS011;49700;48.072;7.800;2023-05-15T09:12:05;7.13;;;5.90;;
63555;SDS011;49700;48.072;7.800;2023-05-15T09:14:34;8.37;;;7.30;;
63555;SDS011;49700;48.072;7.800;2023-05-15T09:17:00;11.00;;;6.27;;
63555;SDS011;49700;48.072;7.800;2023-05-15T09:19:25;6.40;;;5.80;;
63555;SDS011;49700;48.072;7.800;2023-05-15T09:21:51;8.83;;;6.80;;
63555;SDS011;49700;48.072;7.800;2023-05-15T09:24:21;9.40;;;7.07;;
63555;SDS011;49700;48.072;7.800;2023-05-15T09:27:04;7.47;;;6.77;;
63555;SDS011;49700;48.072;7.800;2023-05-15T09:29:31;6.83;;;5.90;;
63555;SDS011;49700;48.072;7.800;2023-05-15T09:32:01;8.53;;;6.93;;
63555;SDS011;49700;48.072;7.800;2023-05-15T09:34:34;8.30;;;6.90;;
63555;SDS011;49700;48.072;7.800;2023-05-15T09:37:02;10.43;;;6.40;;
63555;SDS011;49700;48.072;7.800;2023-05-15T09:39:29;7.00;;;6.40;;
63555;SDS011;49700;48.072;7.800;2023-05-15T09:42:06;6.87;;;6.17;;
63555;SDS011;49700;48.072;7.800;2023-05-15T09:44:33;9.13;;;5.80;;
63555;SDS011;49700;48.072;7.800;2023-05-15T09:46:59;7.40;;;6.63;;
63555;SDS011;49700;48.072;7.800;2023-05-15T09:49:26;8.00;;;6.70;;
63555;SDS011;49700;48.072;7.800;2023-05-15T09:51:53;7.43;;;6.10;;
63555;SDS011;49700;48.072;7.800;2023-05-15T09:54:22;7.67;;;6.97;;
63555;SDS011;49700;48.072;7.800;2023-05-15T09:56:48;7.70;;;6.90;;
63555;SDS011;49700;48.072;7.800;2023-05-15T09:59:14;7.60;;;6.80;;
63555;SDS011;49700;48.072;7.800;2023-05-15T10:01:46;6.23;;;5.60;;
63555;SDS011;49700;48.072;7.800;2023-05-15T10:04:13;7.73;;;6.87;;
63555;SDS011;49700;48.072;7.800;2023-05-15T10:06:44;7.20;;;5.97;;
63555;SDS011;49700;48.072;7.800;2023-05-15T10:09:10;6.23;;;5.63;;
63555;SDS011;49700;48.072;7.800;2023-05-15T10:11:43;6.97;;;5.63;;
63555;SDS011;49700;48.072;7.800;2023-05-15T10:14:14;8.37;;;4.60;;
63555;SDS011;49700;48.072;7.800;2023-05-15T10:16:41;7.97;;;5.10;;
63555;SDS011;49700;48.072;7.800;2023-05-15T10:19:07;8.13;;;5.70;;
63555;SDS011;49700;48.072;7.800;2023-05-15T10:21:35;8.33;;;4.90;;
63555;SDS011;49700;48.072;7.800;2023-05-15T10:24:05;8.53;;;5.70;;
63555;SDS011;49700;48.072;7.800;2023-05-15T10:26:35;4.37;;;3.97;;
63555;SDS011;49700;48.072;7.800;2023-05-15T10:29:11;4.17;;;3.77;;
63555;SDS011;49700;48.072;7.800;2023-05-15T10:31:38;4.80;;;4.10;;
63555;SDS011;49700;48.072;7.800;2023-05-15T10:34:04;5.03;;;4.10;;
63555;SDS011;49700;48.072;7.800;2023-05-15T10:36:31;7.23;;;4.90;;
63555;SDS011;49700;48.072;7.800;2023-05-15T10:39:01;4.00;;;3.70;;
63555;SDS011;49700;48.072;7.800;2023-05-15T10:41:37;4.83;;;3.73;;
63555;SDS011;49700;48.072;7.800;2023-05-15T10:44:04;4.47;;;4.00;;
63555;SDS011;49700;48.072;7.800;2023-05-15T10:46:31;4.77;;;3.60;;
63555;SDS011;49700;48.072;7.800;2023-05-15T10:48:58;6.50;;;3.97;;
63555;SDS011;49700;48.072;7.800;2023-05-15T10:51:28;5.03;;;4.00;;
63555;SDS011;49700;48.072;7.800;2023-05-15T10:53:55;5.10;;;3.57;;
63555;SDS011;49700;48.072;7.800;2023-05-15T10:56:25;5.90;;;3.90;;
63555;SDS011;49700;48.072;7.800;2023-05-15T10:58:54;3.67;;;3.20;;
63555;SDS011;49700;48.072;7.800;2023-05-15T11:01:32;4.30;;;3.90;;
63555;SDS011;49700;48.072;7.800;2023-05-15T11:04:06;4.60;;;3.90;;
63555;SDS011;49700;48.072;7.800;2023-05-15T11:06:35;5.40;;;3.50;;
63555;SDS011;49700;48.072;7.800;2023-05-15T11:17:15;4.37;;;3.97;;
63555;SDS011;49700;48.072;7.800;2023-05-15T11:24:52;7.17;;;5.10;;
63555;SDS011;49700;48.072;7.800;2023-05-15T11:27:23;5.63;;;5.10;;
63555;SDS011;49700;48.072;7.800;2023-05-15T11:30:12;4.73;;;4.33;;
63555;SDS011;49700;48.072;7.800;2023-05-15T11:35:41;4.90;;;4.50;;
63555;SDS011;49700;48.072;7.800;2023-05-15T11:45:46;5.43;;;4.60;;
63555;SDS011;49700;48.072;7.800;2023-05-15T11:48:14;6.70;;;5.73;;
63555;SDS011;49700;48.072;7.800;2023-05-15T11:50:40;5.77;;;5.17;;
63555;SDS011;49700;48.072;7.800;2023-05-15T11:53:07;5.20;;;4.70;;
63555;SDS011;49700;48.072;7.800;2023-05-15T11:55:34;4.87;;;4.37;;
63555;SDS011;49700;48.072;7.800;2023-05-15T11:58:01;6.17;;;5.27;;
63555;SDS011;49700;48.072;7.800;2023-05-15T12:00:28;6.37;;;5.30;;
63555;SDS011;49700;48.072;7.800;2023-05-15T12:02:54;5.87;;;5.23;;
63555;SDS011;49700;48.072;7.800;2023-05-15T12:05:20;5.40;;;4.80;;
63555;SDS011;49700;48.072;7.800;2023-05-15T12:07:45;6.00;;;4.73;;
63555;SDS011;49700;48.072;7.800;2023-05-15T12:10:11;5.17;;;4.67;;
63555;SDS011;49700;48.072;7.800;2023-05-15T12:12:41;8.10;;;5.33;;
63555;SDS011;49700;48.072;7.800;2023-05-15T12:15:09;5.70;;;4.23;;
63555;SDS011;49700;48.072;7.800;2023-05-15T12:17:38;5.40;;;4.90;;
63555;SDS011;49700;48.072;7.800;2023-05-15T12:20:06;6.20;;;4.33;;
63555;SDS011;49700;48.072;7.800;2023-05-15T12:22:39;5.03;;;4.50;;
63555;SDS011;49700;48.072;7.800;2023-05-15T12:25:09;3.87;;;3.57;;
63555;SDS011;49700;48.072;7.800;2023-05-15T12:27:37;4.97;;;4.50;;
63555;SDS011;49700;48.072;7.800;2023-05-15T12:30:03;4.47;;;4.00;;
63555;SDS011;49700;48.072;7.800;2023-05-15T12:32:31;5.97;;;4.23;;
63555;SDS011;49700;48.072;7.800;2023-05-15T12:34:58;5.10;;;3.43;;
63555;SDS011;49700;48.072;7.800;2023-05-15T12:37:24;5.20;;;3.80;;
63555;SDS011;49700;48.072;7.800;2023-05-15T12:39:50;4.23;;;3.83;;
63555;SDS011;49700;48.072;7.800;2023-05-15T12:42:18;4.67;;;4.27;;
63555;SDS011;49700;48.072;7.800;2023-05-15T12:44:43;5.43;;;4.87;;
63555;SDS011;49700;48.072;7.800;2023-05-15T12:47:08;4.53;;;4.13;;
63555;SDS011;49700;48.072;7.800;2023-05-15T12:49:37;5.87;;;4.10;;
63555;SDS011;49700;48.072;7.800;2023-05-15T12:52:08;3.33;;;3.13;;
63555;SDS011;49700;48.072;7.800;2023-05-15T12:54:38;4.57;;;3.53;;
63555;SDS011;49700;48.072;7.800;2023-05-15T12:57:07;3.70;;;2.90;;
63555;SDS011;49700;48.072;7.800;2023-05-15T12:59:33;3.30;;;3.00;;
63555;SDS011;49700;48.072;7.800;2023-05-15T13:02:00;4.63;;;2.70;;
63555;SDS011;49700;48.072;7.800;2023-05-15T13:04:25;2.57;;;2.37;;
63555;SDS011;49700;48.072;7.800;2023-05-15T13:06:51;2.63;;;2.40;;
63555;SDS011;49700;48.072;7.800;2023-05-15T13:09:20;3.10;;;2.80;;
63555;SDS011;49700;48.072;7.800;2023-05-15T13:11:46;2.70;;;2.50;;
63555;SDS011;49700;48.072;7.800;2023-05-15T13:14:12;3.23;;;2.90;;
63555;SDS011;49700;48.072;7.800;2023-05-15T13:16:44;2.37;;;2.17;;
63555;SDS011;49700;48.072;7.800;2023-05-15T13:19:11;2.23;;;2.13;;
63555;SDS011;49700;48.072;7.800;2023-05-15T13:21:37;2.53;;;2.30;;
63555;SDS011;49700;48.072;7.800;2023-05-15T13:24:02;3.40;;;2.50;;
63555;SDS011;49700;48.072;7.800;2023-05-15T13:26:28;3.67;;;1.97;;
63555;SDS011;49700;48.072;7.800;2023-05-15T13:28:54;3.60;;;2.47;;
63555;SDS011;49700;48.072;7.800;2023-05-15T13:31:19;1.70;;;1.60;;
63555;SDS011;49700;48.072;7.800;2023-05-15T13:33:45;2.70;;;2.50;;
63555;SDS011;49700;48.072;7.800;2023-05-15T13:36:10;2.27;;;2.07;;
63555;SDS011;49700;48.072;7.800;2023-05-15T13:38:36;1.87;;;1.77;;
63555;SDS011;49700;48.072;7.800;2023-05-15T13:41:02;3.60;;;1.83;;
63555;SDS011;49700;48.072;7.800;2023-05-15T13:43:28;1.93;;;1.77;;
63555;SDS011;49700;48.072;7.800;2023-05-15T13:45:53;1.60;;;1.40;;
63555;SDS011;49700;48.072;7.800;2023-05-15T13:48:19;3.50;;;2.43;;
63555;SDS011;49700;48.072;7.800;2023-05-15T13:50:44;2.83;;;2.33;;
63555;SDS011;49700;48.072;7.800;2023-05-15T13:53:10;3.10;;;2.30;;
63555;SDS011;49700;48.072;7.800;2023-05-15T13:55:40;2.27;;;1.87;;
63555;SDS011;49700;48.072;7.800;2023-05-15T13:58:10;2.00;;;1.80;;
63555;SDS011;49700;48.072;7.800;2023-05-15T14:00:36;2.17;;;1.97;;
63555;SDS011;49700;48.072;7.800;2023-05-15T14:03:02;3.30;;;3.10;;
63555;SDS011;49700;48.072;7.800;2023-05-15T14:05:28;2.00;;;1.90;;
63555;SDS011;49700;48.072;7.800;2023-05-15T14:07:53;2.97;;;2.77;;
63555;SDS011;49700;48.072;7.800;2023-05-15T14:10:19;2.43;;;2.13;;
63555;SDS011;49700;48.072;7.800;2023-05-15T14:12:44;2.37;;;2.17;;
63555;SDS011;49700;48.072;7.800;2023-05-15T14:15:11;4.20;;;2.50;;
63555;SDS011;49700;48.072;7.800;2023-05-15T14:17:36;3.80;;;3.50;;
63555;SDS011;49700;48.072;7.800;2023-05-15T14:20:02;5.10;;;2.40;;
63555;SDS011;49700;48.072;7.800;2023-05-15T14:22:29;5.07;;;3.60;;
63555;SDS011;49700;48.072;7.800;2023-05-15T14:24:54;4.73;;;2.87;;
63555;SDS011;49700;48.072;7.800;2023-05-15T14:27:20;2.97;;;2.67;;
63555;SDS011;49700;48.072;7.800;2023-05-15T14:29:45;4.30;;;2.77;;
63555;SDS011;49700;48.072;7.800;2023-05-15T14:32:12;4.17;;;3.20;;
63555;SDS011;49700;48.072;7.800;2023-05-15T14:34:38;3.83;;;2.87;;
63555;SDS011;49700;48.072;7.800;2023-05-15T14:37:03;4.10;;;2.77;;
63555;SDS011;49700;48.072;7.800;2023-05-15T14:39:29;3.20;;;3.00;;
63555;SDS011;49700;48.072;7.800;2023-05-15T14:41:54;4.60;;;2.87;;
63555;SDS011;49700;48.072;7.800;2023-05-15T14:44:20;3.07;;;2.87;;
63555;SDS011;49700;48.072;7.800;2023-05-15T14:46:45;2.63;;;2.30;;
63555;SDS011;49700;48.072;7.800;2023-05-15T14:49:10;2.03;;;1.83;;
63555;SDS011;49700;48.072;7.800;2023-05-15T14:51:36;2.60;;;2.27;;
63555;SDS011;49700;48.072;7.800;2023-05-15T14:54:01;2.40;;;2.20;;
63555;SDS011;49700;48.072;7.800;2023-05-15T14:56:29;2.10;;;1.53;;
63555;SDS011;49700;48.072;7.800;2023-05-15T14:58:54;1.93;;;1.63;;
63555;SDS011;49700;48.072;7.800;2023-05-15T15:01:19;2.23;;;1.90;;
63555;SDS011;49700;48.072;7.800;2023-05-15T15:03:45;3.43;;;1.83;;
63555;SDS011;49700;48.072;7.800;2023-05-15T15:06:10;1.90;;;1.30;;
63555;SDS011;49700;48.072;7.800;2023-05-15T15:08:36;2.27;;;2.00;;
63555;SDS011;49700;48.072;7.800;2023-05-15T15:11:01;1.97;;;1.83;;
63555;SDS011;49700;48.072;7.800;2023-05-15T15:13:27;2.83;;;2.63;;
63555;SDS011;49700;48.072;7.800;2023-05-15T15:15:54;2.03;;;1.93;;
63555;SDS011;49700;48.072;7.800;2023-05-15T15:18:20;1.70;;;1.60;;
63555;SDS011;49700;48.072;7.800;2023-05-15T15:20:46;2.70;;;1.77;;
63555;SDS011;49700;48.072;7.800;2023-05-15T15:23:11;1.90;;;1.80;;